sensor_id;sensor_type;location;lat;lon;timestamp;P1;durP1;ratioP1;P2;durP2;ratioP2
51491;SDS011;37569;50.548;8.778;2024-02-26T00:01:31;3.9;;;3.2;;
51491;SDS011;37569;50.548;8.778;2024-02-26T00:06:29;6.1;;;3.1;;
51491;SDS011;37569;50.548;8.778;2024-02-26T00:11:30;5;;;3.1;;
51491;SDS011;37569;50.548;8.778;2024-02-26T00:16:30;5.1;;;3.3;;
51491;SDS011;37569;50.548;8.778;2024-02-26T00:21:30;4.4;;;3;;
51491;SDS011;37569;50.548;8.778;2024-02-26T00:26:30;5.3;;;2.8;;
51491;SDS011;37569;50.548;8.778;2024-02-26T00:31:31;3.8;;;2.6;;
51491;SDS011;37569;50.548;8.778;2024-02-26T00:36:31;2.7;;;2;;
51491;SDS011;37569;50.548;8.778;2024-02-26T00:41:31;2.4;;;2.1;;
51491;SDS011;37569;50.548;8.778;2024-02-26T00:46:32;2.6;;;1.9;;
51491;SDS011;37569;50.548;8.778;2024-02-26T00:51:32;4;;;2.4;;
51491;SDS011;37569;50.548;8.778;2024-02-26T00:56:32;3.3;;;1.9;;
51491;SDS011;37569;50.548;8.778;2024-02-26T01:01:32;2.4;;;2.1;;
51491;SDS011;37569;50.548;8.778;2024-02-26T01:06:33;2.6;;;2.1;;
51491;SDS011;37569;50.548;8.778;2024-02-26T01:11:33;2;;;1.8;;
51491;SDS011;37569;50.548;8.778;2024-02-26T01:16:33;3.2;;;2;;
51491;SDS011;37569;50.548;8.778;2024-02-26T01:21:33;2.5;;;2.1;;
51491;SDS011;37569;50.548;8.778;2024-02-26T01:26:34;2.9;;;1.8;;
51491;SDS011;37569;50.548;8.778;2024-02-26T01:31:34;2.3;;;2;;
51491;SDS011;37569;50.548;8.778;2024-02-26T01:36:34;2.2;;;1.8;;
51491;SDS011;37569;50.548;8.778;2024-02-26T01:41:35;2.6;;;1.8;;
51491;SDS011;37569;50.548;8.778;2024-02-26T01:46:35;2.5;;;2;;
51491;SDS011;37569;50.548;8.778;2024-02-26T01:51:35;2.4;;;1.7;;
51491;SDS011;37569;50.548;8.778;2024-02-26T01:56:36;2.3;;;1.7;;
51491;SDS011;37569;50.548;8.778;2024-02-26T02:01:36;2.1;;;1.8;;
51491;SDS011;37569;50.548;8.778;2024-02-26T02:06:36;2.2;;;1.8;;
51491;SDS011;37569;50.548;8.778;2024-02-26T02:11:36;3.1;;;1.8;;
51491;SDS011;37569;50.548;8.778;2024-02-26T02:16:37;2.4;;;1.9;;
51491;SDS011;37569;50.548;8.778;2024-02-26T02:21:37;2.2;;;1.7;;
51491;SDS011;37569;50.548;8.778;2024-02-26T02:26:37;2.2;;;1.8;;
51491;SDS011;37569;50.548;8.778;2024-02-26T02:31:37;3.6;;;2.2;;
51491;SDS011;37569;50.548;8.778;2024-02-26T02:36:48;3.4;;;2;;
51491;SDS011;37569;50.548;8.778;2024-02-26T02:41:38;2.4;;;1.9;;
51491;SDS011;37569;50.548;8.778;2024-02-26T02:46:38;2.4;;;2.1;;
51491;SDS011;37569;50.548;8.778;2024-02-26T02:51:38;3.3;;;2;;
51491;SDS011;37569;50.548;8.778;2024-02-26T02:56:39;3.3;;;2;;
51491;SDS011;37569;50.548;8.778;2024-02-26T03:01:39;2.1;;;1.9;;
51491;SDS011;37569;50.548;8.778;2024-02-26T03:06:39;3.2;;;1.9;;
51491;SDS011;37569;50.548;8.778;2024-02-26T03:11:40;4.1;;;2;;
51491;SDS011;37569;50.548;8.778;2024-02-26T03:16:40;2.5;;;2;;
51491;SDS011;37569;50.548;8.778;2024-02-26T03:21:40;2.6;;;1.9;;
51491;SDS011;37569;50.548;8.778;2024-02-26T03:26:40;3.1;;;1.8;;
51491;SDS011;37569;50.548;8.778;2024-02-26T03:31:41;2.1;;;1.9;;
51491;SDS011;37569;50.548;8.778;2024-02-26T03:36:41;3.4;;;2.1;;
51491;SDS011;37569;50.548;8.778;2024-02-26T03:41:41;2.5;;;1.9;;
51491;SDS011;37569;50.548;8.778;2024-02-26T03:46:41;2.9;;;2.1;;
51491;SDS011;37569;50.548;8.778;2024-02-26T03:51:42;3;;;2.1;;
51491;SDS011;37569;50.548;8.778;2024-02-26T03:56:42;2.8;;;2;;
51491;SDS011;37569;50.548;8.778;2024-02-26T04:01:44;2.4;;;2;;
51491;SDS011;37569;50.548;8.778;2024-02-26T04:06:44;3.7;;;2.1;;
51491;SDS011;37569;50.548;8.778;2024-02-26T04:11:43;2.5;;;2.3;;
51491;SDS011;37569;50.548;8.778;2024-02-26T04:16:43;3.4;;;2.5;;
51491;SDS011;37569;50.548;8.778;2024-02-26T04:21:43;3.3;;;2.4;;
51491;SDS011;37569;50.548;8.778;2024-02-26T04:26:44;2.8;;;2.5;;
51491;SDS011;37569;50.548;8.778;2024-02-26T04:31:44;3.2;;;2.6;;
51491;SDS011;37569;50.548;8.778;2024-02-26T04:36:44;2.9;;;2.2;;
51491;SDS011;37569;50.548;8.778;2024-02-26T04:41:44;2.7;;;2.2;;
51491;SDS011;37569;50.548;8.778;2024-02-26T04:46:45;3.4;;;2.4;;
51491;SDS011;37569;50.548;8.778;2024-02-26T04:51:45;3.7;;;2.5;;
51491;SDS011;37569;50.548;8.778;2024-02-26T04:56:45;2.7;;;2.3;;
51491;SDS011;37569;50.548;8.778;2024-02-26T05:01:46;7.4;;;4.8;;
51491;SDS011;37569;50.548;8.778;2024-02-26T05:06:46;6.7;;;4.8;;
51491;SDS011;37569;50.548;8.778;2024-02-26T05:11:46;8.6;;;5.5;;
51491;SDS011;37569;50.548;8.778;2024-02-26T05:16:46;7.1;;;5.3;;
51491;SDS011;37569;50.548;8.778;2024-02-26T05:21:47;7.7;;;4.8;;
51491;SDS011;37569;50.548;8.778;2024-02-26T05:26:47;9.4;;;5.9;;
51491;SDS011;37569;50.548;8.778;2024-02-26T05:31:47;5.7;;;4.1;;
51491;SDS011;37569;50.548;8.778;2024-02-26T05:36:47;4.4;;;2.9;;
51491;SDS011;37569;50.548;8.778;2024-02-26T05:41:48;3.3;;;2.9;;
51491;SDS011;37569;50.548;8.778;2024-02-26T05:46:48;3.7;;;3;;
51491;SDS011;37569;50.548;8.778;2024-02-26T05:51:48;3.9;;;2.7;;
51491;SDS011;37569;50.548;8.778;2024-02-26T05:56:49;3.1;;;2.8;;
51491;SDS011;37569;50.548;8.778;2024-02-26T06:01:49;4.2;;;2.7;;
51491;SDS011;37569;50.548;8.778;2024-02-26T06:06:49;3.2;;;2.6;;
51491;SDS011;37569;50.548;8.778;2024-02-26T06:11:50;3.5;;;2.8;;
51491;SDS011;37569;50.548;8.778;2024-02-26T06:16:50;3.5;;;2.7;;
51491;SDS011;37569;50.548;8.778;2024-02-26T06:21:50;13.9;;;11.4;;
51491;SDS011;37569;50.548;8.778;2024-02-26T06:26:50;17.2;;;13.7;;
51491;SDS011;37569;50.548;8.778;2024-02-26T06:31:51;14.8;;;9.8;;
51491;SDS011;37569;50.548;8.778;2024-02-26T06:36:51;8.4;;;6.2;;
51491;SDS011;37569;50.548;8.778;2024-02-26T06:41:51;5.2;;;4.2;;
51491;SDS011;37569;50.548;8.778;2024-02-26T06:46:52;4;;;3.1;;
51491;SDS011;37569;50.548;8.778;2024-02-26T06:51:52;4.3;;;2.7;;
51491;SDS011;37569;50.548;8.778;2024-02-26T06:56:52;5.8;;;3.7;;
51491;SDS011;37569;50.548;8.778;2024-02-26T07:01:53;4.3;;;3.4;;
51491;SDS011;37569;50.548;8.778;2024-02-26T07:06:53;3.9;;;2.8;;
51491;SDS011;37569;50.548;8.778;2024-02-26T07:11:53;13.7;;;7.4;;
51491;SDS011;37569;50.548;8.778;2024-02-26T07:16:53;9.1;;;5.4;;
51491;SDS011;37569;50.548;8.778;2024-02-26T07:21:54;7.9;;;5.1;;
51491;SDS011;37569;50.548;8.778;2024-02-26T07:26:54;8.9;;;5.7;;
51491;SDS011;37569;50.548;8.778;2024-02-26T07:31:54;4;;;3.2;;
51491;SDS011;37569;50.548;8.778;2024-02-26T07:36:55;4.7;;;2.9;;
51491;SDS011;37569;50.548;8.778;2024-02-26T07:41:55;4.5;;;2.9;;
51491;SDS011;37569;50.548;8.778;2024-02-26T07:46:55;5.1;;;2.9;;
51491;SDS011;37569;50.548;8.778;2024-02-26T07:51:56;3.1;;;2.5;;
51491;SDS011;37569;50.548;8.778;2024-02-26T07:56:56;4.5;;;3;;
51491;SDS011;37569;50.548;8.778;2024-02-26T08:01:56;4.1;;;2.8;;
51491;SDS011;37569;50.548;8.778;2024-02-26T08:06:57;6.1;;;4;;
51491;SDS011;37569;50.548;8.778;2024-02-26T08:11:57;6.4;;;3.2;;
51491;SDS011;37569;50.548;8.778;2024-02-26T08:16:57;4.9;;;2.9;;
51491;SDS011;37569;50.548;8.778;2024-02-26T08:21:58;3.2;;;2.6;;
51491;SDS011;37569;50.548;8.778;2024-02-26T08:26:58;3.6;;;2.8;;
51491;SDS011;37569;50.548;8.778;2024-02-26T08:31:58;5.8;;;3.3;;
51491;SDS011;37569;50.548;8.778;2024-02-26T08:36:59;5.7;;;3.6;;
51491;SDS011;37569;50.548;8.778;2024-02-26T08:41:59;5.3;;;3.2;;
51491;SDS011;37569;50.548;8.778;2024-02-26T08:46:59;6.1;;;3.5;;
51491;SDS011;37569;50.548;8.778;2024-02-26T08:52:00;11.9;;;6.3;;
51491;SDS011;37569;50.548;8.778;2024-02-26T08:57:00;52.1;;;27.2;;
51491;SDS011;37569;50.548;8.778;2024-02-26T09:02:01;26.1;;;13.7;;
51491;SDS011;37569;50.548;8.778;2024-02-26T09:07:01;10.7;;;6.5;;
51491;SDS011;37569;50.548;8.778;2024-02-26T09:12:01;15.8;;;5.5;;
51491;SDS011;37569;50.548;8.778;2024-02-26T09:17:02;8.3;;;4;;
51491;SDS011;37569;50.548;8.778;2024-02-26T09:22:02;6.4;;;4.4;;
51491;SDS011;37569;50.548;8.778;2024-02-26T09:27:02;6;;;4;;
51491;SDS011;37569;50.548;8.778;2024-02-26T09:32:03;4.9;;;3.5;;
51491;SDS011;37569;50.548;8.778;2024-02-26T09:37:03;6.9;;;3.7;;
51491;SDS011;37569;50.548;8.778;2024-02-26T09:42:04;5.1;;;3.6;;
51491;SDS011;37569;50.548;8.778;2024-02-26T09:47:04;5.7;;;3.9;;
51491;SDS011;37569;50.548;8.778;2024-02-26T09:52:04;6.5;;;3.8;;
51491;SDS011;37569;50.548;8.778;2024-02-26T09:57:05;6.4;;;3.5;;
51491;SDS011;37569;50.548;8.778;2024-02-26T10:02:05;5.5;;;3.5;;
51491;SDS011;37569;50.548;8.778;2024-02-26T10:07:05;5.8;;;4.1;;
51491;SDS011;37569;50.548;8.778;2024-02-26T10:12:06;6.3;;;4.3;;
51491;SDS011;37569;50.548;8.778;2024-02-26T10:17:06;6.2;;;4.4;;
51491;SDS011;37569;50.548;8.778;2024-02-26T10:22:06;5.4;;;4.2;;
51491;SDS011;37569;50.548;8.778;2024-02-26T10:27:07;9.3;;;5.7;;
51491;SDS011;37569;50.548;8.778;2024-02-26T10:32:07;6.2;;;4.4;;
51491;SDS011;37569;50.548;8.778;2024-02-26T10:37:08;27;;;16.2;;
51491;SDS011;37569;50.548;8.778;2024-02-26T10:42:10;39.9;;;23.6;;
51491;SDS011;37569;50.548;8.778;2024-02-26T10:47:08;6.5;;;4.2;;
51491;SDS011;37569;50.548;8.778;2024-02-26T10:52:09;6.7;;;4.7;;
51491;SDS011;37569;50.548;8.778;2024-02-26T10:57:09;7.3;;;4.3;;
51491;SDS011;37569;50.548;8.778;2024-02-26T11:02:10;6.7;;;4.7;;
51491;SDS011;37569;50.548;8.778;2024-02-26T11:07:10;6.2;;;3.9;;
51491;SDS011;37569;50.548;8.778;2024-02-26T11:12:10;5.3;;;4;;
51491;SDS011;37569;50.548;8.778;2024-02-26T11:17:11;5.6;;;3.9;;
51491;SDS011;37569;50.548;8.778;2024-02-26T11:22:11;4.9;;;3.9;;
51491;SDS011;37569;50.548;8.778;2024-02-26T11:27:11;5.4;;;3.4;;
51491;SDS011;37569;50.548;8.778;2024-02-26T11:32:12;5.2;;;3.9;;
51491;SDS011;37569;50.548;8.778;2024-02-26T11:37:13;4.9;;;3.5;;
51491;SDS011;37569;50.548;8.778;2024-02-26T11:42:13;5.3;;;3.8;;
51491;SDS011;37569;50.548;8.778;2024-02-26T11:47:13;4.8;;;3.8;;
51491;SDS011;37569;50.548;8.778;2024-02-26T11:52:14;5.7;;;3.4;;
51491;SDS011;37569;50.548;8.778;2024-02-26T11:57:30;5;;;3.2;;
51491;SDS011;37569;50.548;8.778;2024-02-26T12:02:36;4.7;;;3.3;;
51491;SDS011;37569;50.548;8.778;2024-02-26T12:07:15;4.3;;;3;;
51491;SDS011;37569;50.548;8.778;2024-02-26T12:12:17;5;;;3;;
51491;SDS011;37569;50.548;8.778;2024-02-26T12:17:18;4.8;;;3;;
51491;SDS011;37569;50.548;8.778;2024-02-26T12:22:16;4.9;;;3.2;;
51491;SDS011;37569;50.548;8.778;2024-02-26T12:27:17;4.5;;;3.2;;
51491;SDS011;37569;50.548;8.778;2024-02-26T12:32:17;7.3;;;5.5;;
51491;SDS011;37569;50.548;8.778;2024-02-26T12:37:17;4.9;;;3.2;;
51491;SDS011;37569;50.548;8.778;2024-02-26T12:42:18;4.6;;;3.2;;
51491;SDS011;37569;50.548;8.778;2024-02-26T12:47:18;5.7;;;3.9;;
51491;SDS011;37569;50.548;8.778;2024-02-26T12:52:19;5;;;3.5;;
51491;SDS011;37569;50.548;8.778;2024-02-26T12:57:19;6;;;3.3;;
51491;SDS011;37569;50.548;8.778;2024-02-26T13:02:20;5.4;;;3.2;;
51491;SDS011;37569;50.548;8.778;2024-02-26T13:07:20;5.4;;;3.4;;
51491;SDS011;37569;50.548;8.778;2024-02-26T13:12:21;4.7;;;3.6;;
51491;SDS011;37569;50.548;8.778;2024-02-26T13:17:21;6.1;;;4.1;;
51491;SDS011;37569;50.548;8.778;2024-02-26T13:22:22;16.2;;;7.7;;
51491;SDS011;37569;50.548;8.778;2024-02-26T13:27:22;23.4;;;10.4;;
51491;SDS011;37569;50.548;8.778;2024-02-26T13:32:22;5.4;;;3.7;;
51491;SDS011;37569;50.548;8.778;2024-02-26T13:37:23;5.1;;;4;;
51491;SDS011;37569;50.548;8.778;2024-02-26T13:42:23;5.1;;;3.9;;
51491;SDS011;37569;50.548;8.778;2024-02-26T13:47:24;4.8;;;3.7;;
51491;SDS011;37569;50.548;8.778;2024-02-26T13:52:24;4.9;;;3.4;;
51491;SDS011;37569;50.548;8.778;2024-02-26T13:57:25;5;;;3.5;;
51491;SDS011;37569;50.548;8.778;2024-02-26T14:02:25;4.3;;;3.2;;
51491;SDS011;37569;50.548;8.778;2024-02-26T14:07:26;5.8;;;3.8;;
51491;SDS011;37569;50.548;8.778;2024-02-26T14:12:26;5.1;;;3.4;;
51491;SDS011;37569;50.548;8.778;2024-02-26T14:17:27;5.3;;;3.5;;
51491;SDS011;37569;50.548;8.778;2024-02-26T14:22:27;4.9;;;3.5;;
51491;SDS011;37569;50.548;8.778;2024-02-26T14:27:28;4.2;;;2.9;;
51491;SDS011;37569;50.548;8.778;2024-02-26T14:32:28;4.2;;;3.1;;
51491;SDS011;37569;50.548;8.778;2024-02-26T14:37:29;4.1;;;3.6;;
51491;SDS011;37569;50.548;8.778;2024-02-26T14:42:29;4.7;;;3;;
51491;SDS011;37569;50.548;8.778;2024-02-26T14:47:30;4.7;;;3.1;;
51491;SDS011;37569;50.548;8.778;2024-02-26T14:52:30;7.8;;;4.7;;
51491;SDS011;37569;50.548;8.778;2024-02-26T14:57:31;4;;;2.9;;
51491;SDS011;37569;50.548;8.778;2024-02-26T15:02:31;4;;;3.1;;
51491;SDS011;37569;50.548;8.778;2024-02-26T15:07:32;5.4;;;3.4;;
51491;SDS011;37569;50.548;8.778;2024-02-26T15:12:32;4.5;;;3.1;;
51491;SDS011;37569;50.548;8.778;2024-02-26T15:17:33;5.3;;;2.7;;
51491;SDS011;37569;50.548;8.778;2024-02-26T15:22:33;14.3;;;8.8;;
51491;SDS011;37569;50.548;8.778;2024-02-26T15:27:34;5.2;;;4.3;;
51491;SDS011;37569;50.548;8.778;2024-02-26T15:32:34;3.5;;;3.1;;
51491;SDS011;37569;50.548;8.778;2024-02-26T15:37:35;4.6;;;3.6;;
51491;SDS011;37569;50.548;8.778;2024-02-26T15:42:35;5.8;;;4.4;;
51491;SDS011;37569;50.548;8.778;2024-02-26T15:47:36;3.3;;;2.6;;
51491;SDS011;37569;50.548;8.778;2024-02-26T15:52:36;4.4;;;2.8;;
51491;SDS011;37569;50.548;8.778;2024-02-26T15:57:37;3.8;;;2.8;;
51491;SDS011;37569;50.548;8.778;2024-02-26T16:02:37;3.6;;;2.3;;
51491;SDS011;37569;50.548;8.778;2024-02-26T16:07:38;3.3;;;2.3;;
51491;SDS011;37569;50.548;8.778;2024-02-26T16:12:39;5.5;;;3.5;;
51491;SDS011;37569;50.548;8.778;2024-02-26T16:17:40;3.9;;;3.2;;
51491;SDS011;37569;50.548;8.778;2024-02-26T16:22:39;5.2;;;3.1;;
51491;SDS011;37569;50.548;8.778;2024-02-26T16:27:40;3.4;;;3;;
51491;SDS011;37569;50.548;8.778;2024-02-26T16:32:40;4.4;;;3.3;;
51491;SDS011;37569;50.548;8.778;2024-02-26T16:37:41;3.9;;;2.8;;
51491;SDS011;37569;50.548;8.778;2024-02-26T16:42:41;4.4;;;3.3;;
51491;SDS011;37569;50.548;8.778;2024-02-26T16:47:42;4.9;;;3.5;;
51491;SDS011;37569;50.548;8.778;2024-02-26T16:52:42;4.5;;;3.5;;
51491;SDS011;37569;50.548;8.778;2024-02-26T16:57:43;5.5;;;3.6;;
51491;SDS011;37569;50.548;8.778;2024-02-26T17:02:43;5.9;;;4.3;;
51491;SDS011;37569;50.548;8.778;2024-02-26T17:07:43;8.6;;;6.5;;
51491;SDS011;37569;50.548;8.778;2024-02-26T17:12:44;9.4;;;6.6;;
51491;SDS011;37569;50.548;8.778;2024-02-26T17:17:44;8.5;;;7;;
51491;SDS011;37569;50.548;8.778;2024-02-26T17:22:45;9.4;;;7.2;;
51491;SDS011;37569;50.548;8.778;2024-02-26T17:27:45;9.7;;;7;;
51491;SDS011;37569;50.548;8.778;2024-02-26T17:32:46;11.6;;;8;;
51491;SDS011;37569;50.548;8.778;2024-02-26T17:37:46;10.9;;;7.8;;
51491;SDS011;37569;50.548;8.778;2024-02-26T17:42:46;10.4;;;8.6;;
51491;SDS011;37569;50.548;8.778;2024-02-26T17:47:47;12.2;;;8.7;;
51491;SDS011;37569;50.548;8.778;2024-02-26T17:52:47;11.4;;;8.3;;
51491;SDS011;37569;50.548;8.778;2024-02-26T17:57:48;12.7;;;9;;
51491;SDS011;37569;50.548;8.778;2024-02-26T18:02:48;13.7;;;9.9;;
51491;SDS011;37569;50.548;8.778;2024-02-26T18:07:49;12.8;;;9.5;;
51491;SDS011;37569;50.548;8.778;2024-02-26T18:12:49;12.2;;;9.5;;
51491;SDS011;37569;50.548;8.778;2024-02-26T18:17:49;15.8;;;9.6;;
51491;SDS011;37569;50.548;8.778;2024-02-26T18:22:50;12.7;;;9.5;;
51491;SDS011;37569;50.548;8.778;2024-02-26T18:27:50;12.4;;;9.7;;
51491;SDS011;37569;50.548;8.778;2024-02-26T18:32:51;13.8;;;9.4;;
51491;SDS011;37569;50.548;8.778;2024-02-26T18:37:51;12.3;;;9.6;;
51491;SDS011;37569;50.548;8.778;2024-02-26T18:42:51;11.9;;;9;;
51491;SDS011;37569;50.548;8.778;2024-02-26T18:47:52;13.5;;;9.8;;
51491;SDS011;37569;50.548;8.778;2024-02-26T18:52:52;13.9;;;9.1;;
51491;SDS011;37569;50.548;8.778;2024-02-26T18:57:53;14.7;;;10;;
51491;SDS011;37569;50.548;8.778;2024-02-26T19:02:53;14.2;;;10.7;;
51491;SDS011;37569;50.548;8.778;2024-02-26T19:07:53;14.5;;;11;;
51491;SDS011;37569;50.548;8.778;2024-02-26T19:12:54;17;;;12.2;;
51491;SDS011;37569;50.548;8.778;2024-02-26T19:17:54;15;;;10.6;;
51491;SDS011;37569;50.548;8.778;2024-02-26T19:22:54;14.3;;;10.9;;
51491;SDS011;37569;50.548;8.778;2024-02-26T19:27:55;15.4;;;12.1;;
51491;SDS011;37569;50.548;8.778;2024-02-26T19:32:55;20.8;;;14.9;;
51491;SDS011;37569;50.548;8.778;2024-02-26T19:37:56;18.4;;;13.2;;
51491;SDS011;37569;50.548;8.778;2024-02-26T19:42:56;18.3;;;13.5;;
51491;SDS011;37569;50.548;8.778;2024-02-26T19:47:56;21.1;;;14.6;;
51491;SDS011;37569;50.548;8.778;2024-02-26T19:52:57;19.4;;;14;;
51491;SDS011;37569;50.548;8.778;2024-02-26T19:57:57;19.9;;;15;;
51491;SDS011;37569;50.548;8.778;2024-02-26T20:02:57;21.7;;;16;;
51491;SDS011;37569;50.548;8.778;2024-02-26T20:07:58;21.8;;;16.4;;
51491;SDS011;37569;50.548;8.778;2024-02-26T20:12:58;20.7;;;16;;
51491;SDS011;37569;50.548;8.778;2024-02-26T20:17:59;23.4;;;17.1;;
51491;SDS011;37569;50.548;8.778;2024-02-26T20:22:59;25.9;;;18.9;;
51491;SDS011;37569;50.548;8.778;2024-02-26T20:27:59;25.4;;;18.8;;
51491;SDS011;37569;50.548;8.778;2024-02-26T20:33:00;27;;;19.6;;
51491;SDS011;37569;50.548;8.778;2024-02-26T20:38:00;29.3;;;19.8;;
51491;SDS011;37569;50.548;8.778;2024-02-26T20:43:00;30;;;21.9;;
51491;SDS011;37569;50.548;8.778;2024-02-26T20:48:01;29.6;;;22.4;;
51491;SDS011;37569;50.548;8.778;2024-02-26T20:53:01;29.2;;;21.3;;
51491;SDS011;37569;50.548;8.778;2024-02-26T20:58:02;25.5;;;18.4;;
51491;SDS011;37569;50.548;8.778;2024-02-26T21:03:02;25.7;;;19;;
51491;SDS011;37569;50.548;8.778;2024-02-26T21:08:03;26.9;;;21.1;;
51491;SDS011;37569;50.548;8.778;2024-02-26T21:13:03;27.1;;;20.2;;
51491;SDS011;37569;50.548;8.778;2024-02-26T21:18:03;27.1;;;19.1;;
51491;SDS011;37569;50.548;8.778;2024-02-26T21:23:04;25;;;19.4;;
51491;SDS011;37569;50.548;8.778;2024-02-26T21:28:04;27.1;;;19.8;;
51491;SDS011;37569;50.548;8.778;2024-02-26T21:33:04;26.1;;;20;;
51491;SDS011;37569;50.548;8.778;2024-02-26T21:38:05;26.5;;;19.5;;
51491;SDS011;37569;50.548;8.778;2024-02-26T21:43:05;26;;;18.5;;
51491;SDS011;37569;50.548;8.778;2024-02-26T21:48:06;27.2;;;19.9;;
51491;SDS011;37569;50.548;8.778;2024-02-26T21:53:06;27.9;;;19.4;;
51491;SDS011;37569;50.548;8.778;2024-02-26T21:58:06;26.1;;;18.6;;
51491;SDS011;37569;50.548;8.778;2024-02-26T22:03:07;25.7;;;18.1;;
51491;SDS011;37569;50.548;8.778;2024-02-26T22:08:07;26.6;;;19.2;;
51491;SDS011;37569;50.548;8.778;2024-02-26T22:13:08;24.7;;;17.7;;
51491;SDS011;37569;50.548;8.778;2024-02-26T22:18:08;24.3;;;19.1;;
51491;SDS011;37569;50.548;8.778;2024-02-26T22:23:09;24.4;;;17.9;;
51491;SDS011;37569;50.548;8.778;2024-02-26T22:28:09;25.6;;;18;;
51491;SDS011;37569;50.548;8.778;2024-02-26T22:33:09;24.7;;;17.9;;
51491;SDS011;37569;50.548;8.778;2024-02-26T22:38:10;27.7;;;20.7;;
51491;SDS011;37569;50.548;8.778;2024-02-26T22:43:10;23.9;;;18.1;;
51491;SDS011;37569;50.548;8.778;2024-02-26T22:48:11;25.3;;;18;;
51491;SDS011;37569;50.548;8.778;2024-02-26T22:53:11;24.8;;;18.5;;
51491;SDS011;37569;50.548;8.778;2024-02-26T22:58:11;26.9;;;19.3;;
51491;SDS011;37569;50.548;8.778;2024-02-26T23:03:12;25.1;;;18.8;;
51491;SDS011;37569;50.548;8.778;2024-02-26T23:08:12;26;;;19;;
51491;SDS011;37569;50.548;8.778;2024-02-26T23:13:13;24.9;;;17.7;;
51491;SDS011;37569;50.548;8.778;2024-02-26T23:18:13;25.3;;;19.5;;
51491;SDS011;37569;50.548;8.778;2024-02-26T23:23:13;24.9;;;19.6;;
51491;SDS011;37569;50.548;8.778;2024-02-26T23:28:14;23.9;;;18.7;;
51491;SDS011;37569;50.548;8.778;2024-02-26T23:33:14;26.5;;;19.3;;
51491;SDS011;37569;50.548;8.778;2024-02-26T23:38:15;25.4;;;18.3;;
51491;SDS011;37569;50.548;8.778;2024-02-26T23:43:15;25.3;;;19.7;;
51491;SDS011;37569;50.548;8.778;2024-02-26T23:48:15;23.8;;;18.2;;
51491;SDS011;37569;50.548;8.778;2024-02-26T23:53:16;22.8;;;18;;
51491;SDS011;37569;50.548;8.778;2024-02-26T23:58:20;24.5;;;18.1;;
